Disclaimer

Please do not use the information listed here in-flight or in-navigation, as they are not provided to us by the airports but are provided by volunteers, so they might be outdated.

Search


Regions


Airport information page

No radio frequency information is available.

Airport informations:
Latitude: 20° 49' 09.79" N
Longitude: 106° 43' 29.96" E
Elevation: 6 feet - 2 meters
Operating hours: UNKNOWN
Operating agency: Civil government, landing fees and diplomatic clearance may be required
Timezone: UTC+7
Fuel: N/A

Runway information:
07/25 - 7880 x 164 feet< - >2402 x 50 meters

Recent METARs:
VVCI 210000Z 05004KT 4800 BR FEW013 25/24 Q1015 NOSIG
VVCI 210030Z 05005KT 5000 BR FEW013 BKN020 25/24 Q1015 NOSIG
VVCI 210100Z 06004KT 8000 SCT018 BKN031 26/24 Q1016 NOSIG

Airport on the map: